Portada
METAR-TAF:

METAR-TAF

Aeroports :

San José, Costa Rica

latitud: 10-00N, longitud: 084-13W, altitud: 920 m

Observació

L'informe es va fer fa 32 minuts, a les 14:00 UTC
Vent 10 kt del Est
Temperatura 26°C
Humitat 61%
Pressió 1017 hPa
Visibilitat 10 km o més
Escasses núvols a una alçada de 4500 ft
Núvols disperses a una alçada de 25000 ft

METAR: MROC 161400Z 10010KT 9999 FEW045 SCT250 26/18 A3003 NOSIG

Hora: 08:32 (14:32 UTC)

Pronòstic

L'informe es va fer fa 3 hores i 22 minuts, a les 11:10 UTC
Pronòstic vàlid del 16 a les 12 UTC al 17 a les 12 UTC
Vent 7 kt del Est
Visibilitat 10 km o més
Escasses núvols a una alçada de 4000 ft
Temporalment
l' 16 a les 20 UTC al 16 a les 24 UTC
Vent 6 kt del Oest/Sud-Oest
Escasses núvols a una alçada de 2000 ft, Cumulus congestus.
pluja,

TAF: MROC 161110Z 1612/1712 08007KT 9999 FEW040 TX29/1618Z TN20/1711Z TEMPO 1620/1624 25006KT RA FEW020TCU

Observacions i pronòstics meteorològics de més de 4000 aeroports (METAR i TAF).

Les estacions disponibles són els punts grocs i vermells al mapa.

Posi el ratolí al punt desitjat per veure el nom de l'estació.

Feu clic per veure les observacions i els pronòstics meteorològics.

Per canviar el mapa: feu clic els botons verds amb una creu de color negre per apropar; al botó verd amb un guió per allunyar la imatge; o en les fletxes verdes per a mapes adjacents.


METAR-TAF: